sensor_id;sensor_type;location;lat;lon;timestamp;temperature;humidity
23120;DHT22;11729;50.836;4.330;2023-02-27T00:02:24;2.80;99.90
23120;DHT22;11729;50.836;4.330;2023-02-27T00:04:51;3.10;99.90
23120;DHT22;11729;50.836;4.330;2023-02-27T00:07:18;3.10;99.90
23120;DHT22;11729;50.836;4.330;2023-02-27T00:09:44;2.90;99.90
23120;DHT22;11729;50.836;4.330;2023-02-27T00:12:10;2.90;99.90
23120;DHT22;11729;50.836;4.330;2023-02-27T00:14:36;3.00;99.90
23120;DHT22;11729;50.836;4.330;2023-02-27T00:17:02;2.80;99.90
23120;DHT22;11729;50.836;4.330;2023-02-27T00:19:27;2.90;99.90
23120;DHT22;11729;50.836;4.330;2023-02-27T00:21:53;3.00;99.90
23120;DHT22;11729;50.836;4.330;2023-02-27T00:24:20;2.80;99.90
23120;DHT22;11729;50.836;4.330;2023-02-27T00:26:46;2.80;99.90
23120;DHT22;11729;50.836;4.330;2023-02-27T00:29:13;2.60;99.90
23120;DHT22;11729;50.836;4.330;2023-02-27T00:31:39;2.60;99.90
23120;DHT22;11729;50.836;4.330;2023-02-27T00:34:04;2.60;99.90
23120;DHT22;11729;50.836;4.330;2023-02-27T00:36:30;2.50;99.90
23120;DHT22;11729;50.836;4.330;2023-02-27T00:38:56;2.70;99.90
23120;DHT22;11729;50.836;4.330;2023-02-27T00:41:21;2.60;99.90
23120;DHT22;11729;50.836;4.330;2023-02-27T00:43:47;2.50;99.90
23120;DHT22;11729;50.836;4.330;2023-02-27T00:46:12;2.70;99.90
23120;DHT22;11729;50.836;4.330;2023-02-27T00:48:38;2.80;99.90
23120;DHT22;11729;50.836;4.330;2023-02-27T00:51:04;2.80;99.90
23120;DHT22;11729;50.836;4.330;2023-02-27T00:53:31;2.70;99.90
23120;DHT22;11729;50.836;4.330;2023-02-27T00:55:56;2.60;99.90
23120;DHT22;11729;50.836;4.330;2023-02-27T00:58:22;2.70;99.90
23120;DHT22;11729;50.836;4.330;2023-02-27T01:00:48;2.70;99.90
23120;DHT22;11729;50.836;4.330;2023-02-27T01:03:14;2.70;99.90
23120;DHT22;11729;50.836;4.330;2023-02-27T01:05:39;2.80;99.90
23120;DHT22;11729;50.836;4.330;2023-02-27T01:08:05;2.70;99.90
23120;DHT22;11729;50.836;4.330;2023-02-27T01:10:32;2.60;99.90
23120;DHT22;11729;50.836;4.330;2023-02-27T01:12:57;2.60;99.90
23120;DHT22;11729;50.836;4.330;2023-02-27T01:15:23;2.60;99.90
23120;DHT22;11729;50.836;4.330;2023-02-27T01:17:49;2.60;99.90
23120;DHT22;11729;50.836;4.330;2023-02-27T01:20:15;2.70;99.90
23120;DHT22;11729;50.836;4.330;2023-02-27T01:22:41;2.80;99.90
23120;DHT22;11729;50.836;4.330;2023-02-27T01:25:07;2.70;99.90
23120;DHT22;11729;50.836;4.330;2023-02-27T01:27:32;2.60;99.90
23120;DHT22;11729;50.836;4.330;2023-02-27T01:29:59;2.40;99.90
23120;DHT22;11729;50.836;4.330;2023-02-27T01:32:24;2.40;99.90
23120;DHT22;11729;50.836;4.330;2023-02-27T01:34:50;2.40;99.90
23120;DHT22;11729;50.836;4.330;2023-02-27T01:37:17;2.40;99.90
23120;DHT22;11729;50.836;4.330;2023-02-27T01:39:42;2.50;99.90
23120;DHT22;11729;50.836;4.330;2023-02-27T01:42:20;2.50;99.90
23120;DHT22;11729;50.836;4.330;2023-02-27T01:47:53;2.50;99.90
23120;DHT22;11729;50.836;4.330;2023-02-27T01:50:21;2.40;99.90
23120;DHT22;11729;50.836;4.330;2023-02-27T01:52:53;2.50;99.90
23120;DHT22;11729;50.836;4.330;2023-02-27T01:55:20;2.30;99.90
23120;DHT22;11729;50.836;4.330;2023-02-27T01:57:47;2.40;99.90
23120;DHT22;11729;50.836;4.330;2023-02-27T02:00:14;2.40;99.90
23120;DHT22;11729;50.836;4.330;2023-02-27T02:02:43;2.30;99.90
23120;DHT22;11729;50.836;4.330;2023-02-27T02:05:12;2.40;99.90
23120;DHT22;11729;50.836;4.330;2023-02-27T02:07:39;2.40;99.90
23120;DHT22;11729;50.836;4.330;2023-02-27T02:10:07;2.30;99.90
23120;DHT22;11729;50.836;4.330;2023-02-27T02:12:37;2.20;99.90
23120;DHT22;11729;50.836;4.330;2023-02-27T02:15:04;2.10;99.90
23120;DHT22;11729;50.836;4.330;2023-02-27T02:20:39;2.10;99.90
23120;DHT22;11729;50.836;4.330;2023-02-27T02:31:51;2.00;99.90
23120;DHT22;11729;50.836;4.330;2023-02-27T02:40:05;2.10;99.90
23120;DHT22;11729;50.836;4.330;2023-02-27T02:42:45;2.10;99.90
23120;DHT22;11729;50.836;4.330;2023-02-27T02:45:25;2.10;99.90
23120;DHT22;11729;50.836;4.330;2023-02-27T02:48:12;1.90;99.90
23120;DHT22;11729;50.836;4.330;2023-02-27T02:56:21;2.10;99.90
23120;DHT22;11729;50.836;4.330;2023-02-27T02:58:54;1.80;99.90
23120;DHT22;11729;50.836;4.330;2023-02-27T03:01:44;1.70;99.90
23120;DHT22;11729;50.836;4.330;2023-02-27T03:06:49;1.60;99.90
23120;DHT22;11729;50.836;4.330;2023-02-27T03:09:34;1.70;99.90
23120;DHT22;11729;50.836;4.330;2023-02-27T03:12:03;1.70;99.90
23120;DHT22;11729;50.836;4.330;2023-02-27T03:18:14;1.90;99.90
23120;DHT22;11729;50.836;4.330;2023-02-27T03:20:51;1.80;99.90
23120;DHT22;11729;50.836;4.330;2023-02-27T03:23:24;1.90;99.90
23120;DHT22;11729;50.836;4.330;2023-02-27T03:25:52;2.00;99.90
23120;DHT22;11729;50.836;4.330;2023-02-27T03:28:22;1.90;99.90
23120;DHT22;11729;50.836;4.330;2023-02-27T03:31:06;1.80;99.90
23120;DHT22;11729;50.836;4.330;2023-02-27T03:33:48;1.90;99.90
23120;DHT22;11729;50.836;4.330;2023-02-27T03:42:47;1.80;99.90
23120;DHT22;11729;50.836;4.330;2023-02-27T03:44:54;1.70;99.90
23120;DHT22;11729;50.836;4.330;2023-02-27T03:47:22;1.60;99.90
23120;DHT22;11729;50.836;4.330;2023-02-27T03:49:49;1.60;99.90
23120;DHT22;11729;50.836;4.330;2023-02-27T03:52:21;1.50;99.90
23120;DHT22;11729;50.836;4.330;2023-02-27T03:55:16;1.50;99.90
23120;DHT22;11729;50.836;4.330;2023-02-27T03:57:44;1.70;99.90
23120;DHT22;11729;50.836;4.330;2023-02-27T04:00:15;1.70;99.90
23120;DHT22;11729;50.836;4.330;2023-02-27T04:02:43;1.60;99.90
23120;DHT22;11729;50.836;4.330;2023-02-27T04:05:09;1.70;99.90
23120;DHT22;11729;50.836;4.330;2023-02-27T04:14:14;1.70;99.90
23120;DHT22;11729;50.836;4.330;2023-02-27T04:17:18;1.70;99.90
23120;DHT22;11729;50.836;4.330;2023-02-27T04:20:36;1.80;99.90
23120;DHT22;11729;50.836;4.330;2023-02-27T04:23:26;1.60;99.90
23120;DHT22;11729;50.836;4.330;2023-02-27T04:25:52;1.40;99.90
23120;DHT22;11729;50.836;4.330;2023-02-27T04:28:40;1.50;99.90
23120;DHT22;11729;50.836;4.330;2023-02-27T04:31:10;1.40;99.90
23120;DHT22;11729;50.836;4.330;2023-02-27T04:38:50;1.50;99.90
23120;DHT22;11729;50.836;4.330;2023-02-27T04:41:24;1.30;99.90
23120;DHT22;11729;50.836;4.330;2023-02-27T04:43:52;1.20;99.90
23120;DHT22;11729;50.836;4.330;2023-02-27T04:46:22;1.30;99.90
23120;DHT22;11729;50.836;4.330;2023-02-27T04:51:22;1.40;99.90
23120;DHT22;11729;50.836;4.330;2023-02-27T04:53:51;1.30;99.90
23120;DHT22;11729;50.836;4.330;2023-02-27T04:56:26;1.40;99.90
23120;DHT22;11729;50.836;4.330;2023-02-27T04:59:04;1.40;99.90
23120;DHT22;11729;50.836;4.330;2023-02-27T05:01:58;1.40;99.90
23120;DHT22;11729;50.836;4.330;2023-02-27T05:04:28;1.40;99.90
23120;DHT22;11729;50.836;4.330;2023-02-27T05:06:56;1.40;99.90
23120;DHT22;11729;50.836;4.330;2023-02-27T05:09:52;1.50;99.90
23120;DHT22;11729;50.836;4.330;2023-02-27T05:12:25;1.60;99.90
23120;DHT22;11729;50.836;4.330;2023-02-27T05:15:24;1.50;99.90
23120;DHT22;11729;50.836;4.330;2023-02-27T05:17:59;1.40;99.90
23120;DHT22;11729;50.836;4.330;2023-02-27T05:20:52;1.50;99.90
23120;DHT22;11729;50.836;4.330;2023-02-27T05:23:38;1.60;99.90
23120;DHT22;11729;50.836;4.330;2023-02-27T05:26:32;1.70;99.90
23120;DHT22;11729;50.836;4.330;2023-02-27T05:31:54;1.70;99.90
23120;DHT22;11729;50.836;4.330;2023-02-27T05:34:40;1.80;99.90
23120;DHT22;11729;50.836;4.330;2023-02-27T05:37:31;1.50;99.90
23120;DHT22;11729;50.836;4.330;2023-02-27T05:39:59;1.40;99.90
23120;DHT22;11729;50.836;4.330;2023-02-27T05:42:36;1.40;99.90
23120;DHT22;11729;50.836;4.330;2023-02-27T05:45:13;1.30;99.90
23120;DHT22;11729;50.836;4.330;2023-02-27T05:47:44;1.40;99.90
23120;DHT22;11729;50.836;4.330;2023-02-27T05:50:25;1.50;99.90
23120;DHT22;11729;50.836;4.330;2023-02-27T05:52:54;1.40;99.90
23120;DHT22;11729;50.836;4.330;2023-02-27T05:55:38;1.40;99.90
23120;DHT22;11729;50.836;4.330;2023-02-27T05:58:35;1.50;99.90
23120;DHT22;11729;50.836;4.330;2023-02-27T06:01:05;1.70;99.90
23120;DHT22;11729;50.836;4.330;2023-02-27T06:03:32;1.60;99.90
23120;DHT22;11729;50.836;4.330;2023-02-27T06:06:01;1.50;99.90
23120;DHT22;11729;50.836;4.330;2023-02-27T06:08:27;1.50;99.90
23120;DHT22;11729;50.836;4.330;2023-02-27T06:10:53;1.70;99.90
23120;DHT22;11729;50.836;4.330;2023-02-27T06:13:23;1.60;99.90
23120;DHT22;11729;50.836;4.330;2023-02-27T06:15:49;1.50;99.90
23120;DHT22;11729;50.836;4.330;2023-02-27T06:18:16;1.50;99.90
23120;DHT22;11729;50.836;4.330;2023-02-27T06:20:43;1.30;99.90
23120;DHT22;11729;50.836;4.330;2023-02-27T06:23:10;1.20;99.90
23120;DHT22;11729;50.836;4.330;2023-02-27T06:25:36;1.30;99.90
23120;DHT22;11729;50.836;4.330;2023-02-27T06:28:03;1.30;99.90
23120;DHT22;11729;50.836;4.330;2023-02-27T06:30:31;1.20;99.90
23120;DHT22;11729;50.836;4.330;2023-02-27T06:32:56;1.30;99.90
23120;DHT22;11729;50.836;4.330;2023-02-27T06:35:22;1.40;99.90
23120;DHT22;11729;50.836;4.330;2023-02-27T06:37:48;1.50;99.90
23120;DHT22;11729;50.836;4.330;2023-02-27T06:40:14;1.50;99.90
23120;DHT22;11729;50.836;4.330;2023-02-27T06:42:41;1.20;99.90
23120;DHT22;11729;50.836;4.330;2023-02-27T06:45:09;1.20;99.90
23120;DHT22;11729;50.836;4.330;2023-02-27T06:47:35;1.50;99.90
23120;DHT22;11729;50.836;4.330;2023-02-27T06:50:01;1.50;99.90
23120;DHT22;11729;50.836;4.330;2023-02-27T06:52:27;1.60;99.90
23120;DHT22;11729;50.836;4.330;2023-02-27T06:54:52;1.50;99.90
23120;DHT22;11729;50.836;4.330;2023-02-27T06:57:18;1.40;99.90
23120;DHT22;11729;50.836;4.330;2023-02-27T06:59:45;1.40;99.90
23120;DHT22;11729;50.836;4.330;2023-02-27T07:02:12;1.40;99.90
23120;DHT22;11729;50.836;4.330;2023-02-27T07:04:40;1.50;99.90
23120;DHT22;11729;50.836;4.330;2023-02-27T07:07:06;1.50;99.90
23120;DHT22;11729;50.836;4.330;2023-02-27T07:09:32;1.50;99.90
23120;DHT22;11729;50.836;4.330;2023-02-27T07:11:58;1.30;99.90
23120;DHT22;11729;50.836;4.330;2023-02-27T07:14:23;1.20;99.90
23120;DHT22;11729;50.836;4.330;2023-02-27T07:16:50;1.40;99.90
23120;DHT22;11729;50.836;4.330;2023-02-27T07:19:20;1.40;99.90
23120;DHT22;11729;50.836;4.330;2023-02-27T07:21:45;1.50;99.90
23120;DHT22;11729;50.836;4.330;2023-02-27T07:24:11;1.50;99.90
23120;DHT22;11729;50.836;4.330;2023-02-27T07:26:37;1.30;99.90
23120;DHT22;11729;50.836;4.330;2023-02-27T07:29:03;1.20;99.90
23120;DHT22;11729;50.836;4.330;2023-02-27T07:31:29;1.20;99.90
23120;DHT22;11729;50.836;4.330;2023-02-27T07:33:55;1.30;99.90
23120;DHT22;11729;50.836;4.330;2023-02-27T07:36:20;1.30;99.90
23120;DHT22;11729;50.836;4.330;2023-02-27T07:38:46;1.30;99.90
23120;DHT22;11729;50.836;4.330;2023-02-27T07:41:12;1.40;99.90
23120;DHT22;11729;50.836;4.330;2023-02-27T07:43:37;1.60;99.90
23120;DHT22;11729;50.836;4.330;2023-02-27T07:46:03;1.60;99.90
23120;DHT22;11729;50.836;4.330;2023-02-27T07:48:29;1.80;99.90
23120;DHT22;11729;50.836;4.330;2023-02-27T07:50:55;1.80;99.90
23120;DHT22;11729;50.836;4.330;2023-02-27T07:53:21;1.90;99.90
23120;DHT22;11729;50.836;4.330;2023-02-27T07:55:47;1.80;99.90
23120;DHT22;11729;50.836;4.330;2023-02-27T07:58:12;1.80;99.90
23120;DHT22;11729;50.836;4.330;2023-02-27T08:00:38;1.90;99.90
23120;DHT22;11729;50.836;4.330;2023-02-27T08:03:03;1.80;99.90
23120;DHT22;11729;50.836;4.330;2023-02-27T08:05:29;2.10;99.90
23120;DHT22;11729;50.836;4.330;2023-02-27T08:07:55;2.20;99.90
23120;DHT22;11729;50.836;4.330;2023-02-27T08:10:20;2.20;99.90
23120;DHT22;11729;50.836;4.330;2023-02-27T08:12:46;2.60;99.90
23120;DHT22;11729;50.836;4.330;2023-02-27T08:15:12;2.90;99.90
23120;DHT22;11729;50.836;4.330;2023-02-27T08:17:38;3.20;99.90
23120;DHT22;11729;50.836;4.330;2023-02-27T08:20:04;4.10;99.90
23120;DHT22;11729;50.836;4.330;2023-02-27T08:22:31;5.00;99.90
23120;DHT22;11729;50.836;4.330;2023-02-27T08:24:57;5.70;99.90
23120;DHT22;11729;50.836;4.330;2023-02-27T08:27:23;6.50;99.90
23120;DHT22;11729;50.836;4.330;2023-02-27T08:29:49;7.00;99.90
23120;DHT22;11729;50.836;4.330;2023-02-27T08:32:15;7.50;99.90
23120;DHT22;11729;50.836;4.330;2023-02-27T08:34:40;7.20;99.90
23120;DHT22;11729;50.836;4.330;2023-02-27T08:37:06;7.40;99.90
23120;DHT22;11729;50.836;4.330;2023-02-27T08:39:32;7.90;99.90
23120;DHT22;11729;50.836;4.330;2023-02-27T08:41:57;8.10;99.90
23120;DHT22;11729;50.836;4.330;2023-02-27T08:44:23;8.50;99.90
23120;DHT22;11729;50.836;4.330;2023-02-27T08:46:48;8.60;99.90
23120;DHT22;11729;50.836;4.330;2023-02-27T08:49:14;8.90;99.90
23120;DHT22;11729;50.836;4.330;2023-02-27T08:51:40;9.20;99.90
23120;DHT22;11729;50.836;4.330;2023-02-27T08:54:05;9.20;99.90
23120;DHT22;11729;50.836;4.330;2023-02-27T08:56:31;9.40;99.90
23120;DHT22;11729;50.836;4.330;2023-02-27T08:58:59;9.10;99.90
23120;DHT22;11729;50.836;4.330;2023-02-27T09:01:25;9.40;99.90
23120;DHT22;11729;50.836;4.330;2023-02-27T09:03:55;9.50;99.90
23120;DHT22;11729;50.836;4.330;2023-02-27T09:06:21;8.20;99.90
23120;DHT22;11729;50.836;4.330;2023-02-27T09:08:47;8.10;99.90
23120;DHT22;11729;50.836;4.330;2023-02-27T09:11:12;7.70;99.90
23120;DHT22;11729;50.836;4.330;2023-02-27T09:13:38;7.20;99.90
23120;DHT22;11729;50.836;4.330;2023-02-27T09:16:04;6.30;99.90
23120;DHT22;11729;50.836;4.330;2023-02-27T09:18:29;6.40;99.90
23120;DHT22;11729;50.836;4.330;2023-02-27T09:20:55;6.30;99.90
23120;DHT22;11729;50.836;4.330;2023-02-27T09:23:20;5.90;99.90
23120;DHT22;11729;50.836;4.330;2023-02-27T09:25:47;5.30;99.90
23120;DHT22;11729;50.836;4.330;2023-02-27T09:28:12;5.30;99.90
23120;DHT22;11729;50.836;4.330;2023-02-27T09:30:38;5.40;99.90
23120;DHT22;11729;50.836;4.330;2023-02-27T09:33:03;5.20;99.90
23120;DHT22;11729;50.836;4.330;2023-02-27T09:35:29;5.00;99.90
23120;DHT22;11729;50.836;4.330;2023-02-27T09:37:56;4.80;99.90
23120;DHT22;11729;50.836;4.330;2023-02-27T09:40:23;4.90;99.90
23120;DHT22;11729;50.836;4.330;2023-02-27T09:42:50;5.10;99.90
23120;DHT22;11729;50.836;4.330;2023-02-27T09:45:28;5.00;99.90
23120;DHT22;11729;50.836;4.330;2023-02-27T09:48:05;5.10;99.90
23120;DHT22;11729;50.836;4.330;2023-02-27T09:53:03;5.40;99.90
23120;DHT22;11729;50.836;4.330;2023-02-27T09:55:33;5.50;99.90
23120;DHT22;11729;50.836;4.330;2023-02-27T10:00:54;5.00;99.90
23120;DHT22;11729;50.836;4.330;2023-02-27T10:03:54;5.10;99.90
23120;DHT22;11729;50.836;4.330;2023-02-27T10:17:03;5.90;99.90
23120;DHT22;11729;50.836;4.330;2023-02-27T10:19:34;6.00;99.90
23120;DHT22;11729;50.836;4.330;2023-02-27T10:22:05;5.90;99.90
23120;DHT22;11729;50.836;4.330;2023-02-27T10:24:50;6.10;99.90
23120;DHT22;11729;50.836;4.330;2023-02-27T10:27:19;6.20;99.90
23120;DHT22;11729;50.836;4.330;2023-02-27T10:29:45;6.50;99.90
23120;DHT22;11729;50.836;4.330;2023-02-27T10:32:25;6.60;99.90
23120;DHT22;11729;50.836;4.330;2023-02-27T10:35:11;7.40;99.90
23120;DHT22;11729;50.836;4.330;2023-02-27T10:37:45;7.80;99.90
23120;DHT22;11729;50.836;4.330;2023-02-27T10:40:14;7.90;99.90
23120;DHT22;11729;50.836;4.330;2023-02-27T10:42:41;8.60;99.90
23120;DHT22;11729;50.836;4.330;2023-02-27T10:45:12;8.80;99.90
23120;DHT22;11729;50.836;4.330;2023-02-27T10:47:40;9.10;99.90
23120;DHT22;11729;50.836;4.330;2023-02-27T10:50:28;9.00;99.10
23120;DHT22;11729;50.836;4.330;2023-02-27T10:52:57;9.50;99.00
23120;DHT22;11729;50.836;4.330;2023-02-27T10:55:29;9.70;98.70
23120;DHT22;11729;50.836;4.330;2023-02-27T10:57:56;9.20;97.60
23120;DHT22;11729;50.836;4.330;2023-02-27T11:00:31;9.30;98.30
23120;DHT22;11729;50.836;4.330;2023-02-27T11:02:59;9.10;99.00
23120;DHT22;11729;50.836;4.330;2023-02-27T11:05:28;9.50;96.90
23120;DHT22;11729;50.836;4.330;2023-02-27T11:08:10;10.00;96.10
23120;DHT22;11729;50.836;4.330;2023-02-27T11:10:36;10.50;94.30
23120;DHT22;11729;50.836;4.330;2023-02-27T11:13:06;9.80;95.10
23120;DHT22;11729;50.836;4.330;2023-02-27T11:15:42;10.40;95.20
23120;DHT22;11729;50.836;4.330;2023-02-27T11:18:28;10.60;92.30
23120;DHT22;11729;50.836;4.330;2023-02-27T11:23:36;8.80;96.20
23120;DHT22;11729;50.836;4.330;2023-02-27T11:26:23;9.00;97.00
23120;DHT22;11729;50.836;4.330;2023-02-27T11:29:16;10.00;94.90
23120;DHT22;11729;50.836;4.330;2023-02-27T11:32:08;10.30;93.10
23120;DHT22;11729;50.836;4.330;2023-02-27T11:34:45;10.70;92.90
23120;DHT22;11729;50.836;4.330;2023-02-27T11:37:34;11.00;90.80
23120;DHT22;11729;50.836;4.330;2023-02-27T11:42:51;11.80;90.40
23120;DHT22;11729;50.836;4.330;2023-02-27T11:45:22;11.90;89.90
23120;DHT22;11729;50.836;4.330;2023-02-27T11:47:53;11.60;87.00
23120;DHT22;11729;50.836;4.330;2023-02-27T11:53:31;11.60;87.80
23120;DHT22;11729;50.836;4.330;2023-02-27T11:56:00;11.70;85.60
23120;DHT22;11729;50.836;4.330;2023-02-27T11:58:31;11.70;86.10
23120;DHT22;11729;50.836;4.330;2023-02-27T12:01:02;12.10;83.20
23120;DHT22;11729;50.836;4.330;2023-02-27T12:03:48;12.70;83.10
23120;DHT22;11729;50.836;4.330;2023-02-27T12:06:21;12.80;80.00
23120;DHT22;11729;50.836;4.330;2023-02-27T12:09:00;13.30;79.40
23120;DHT22;11729;50.836;4.330;2023-02-27T12:11:34;13.40;77.30
23120;DHT22;11729;50.836;4.330;2023-02-27T12:16:49;13.10;77.20
23120;DHT22;11729;50.836;4.330;2023-02-27T12:19:28;12.90;74.10
23120;DHT22;11729;50.836;4.330;2023-02-27T12:21:58;11.60;76.40
23120;DHT22;11729;50.836;4.330;2023-02-27T12:24:47;12.20;78.10
23120;DHT22;11729;50.836;4.330;2023-02-27T12:27:24;13.10;76.70
23120;DHT22;11729;50.836;4.330;2023-02-27T12:29:58;14.00;76.10
23120;DHT22;11729;50.836;4.330;2023-02-27T12:35:03;14.30;73.70
23120;DHT22;11729;50.836;4.330;2023-02-27T12:37:30;14.80;72.90
23120;DHT22;11729;50.836;4.330;2023-02-27T12:39:59;14.20;71.00
23120;DHT22;11729;50.836;4.330;2023-02-27T12:51:12;13.70;69.00
23120;DHT22;11729;50.836;4.330;2023-02-27T13:03:04;13.80;66.90
23120;DHT22;11729;50.836;4.330;2023-02-27T13:13:56;14.00;65.40
23120;DHT22;11729;50.836;4.330;2023-02-27T13:16:36;13.80;63.60
23120;DHT22;11729;50.836;4.330;2023-02-27T13:21:54;13.40;66.00
23120;DHT22;11729;50.836;4.330;2023-02-27T13:24:42;13.50;66.50
23120;DHT22;11729;50.836;4.330;2023-02-27T13:27:22;13.00;67.00
23120;DHT22;11729;50.836;4.330;2023-02-27T13:32:58;12.00;69.30
23120;DHT22;11729;50.836;4.330;2023-02-27T13:38:47;12.90;67.50
23120;DHT22;11729;50.836;4.330;2023-02-27T13:43:48;11.60;69.80
23120;DHT22;11729;50.836;4.330;2023-02-27T13:46:25;11.50;71.00
23120;DHT22;11729;50.836;4.330;2023-02-27T13:56:50;12.20;71.80
23120;DHT22;11729;50.836;4.330;2023-02-27T13:59:32;11.90;72.30
23120;DHT22;11729;50.836;4.330;2023-02-27T14:02:00;12.40;72.30
23120;DHT22;11729;50.836;4.330;2023-02-27T14:04:31;12.60;72.00
23120;DHT22;11729;50.836;4.330;2023-02-27T14:06:59;12.50;71.20
23120;DHT22;11729;50.836;4.330;2023-02-27T14:09:33;12.80;71.80
23120;DHT22;11729;50.836;4.330;2023-02-27T14:12:01;12.90;71.20
23120;DHT22;11729;50.836;4.330;2023-02-27T14:17:01;13.00;70.20
23120;DHT22;11729;50.836;4.330;2023-02-27T14:19:49;13.20;69.10
23120;DHT22;11729;50.836;4.330;2023-02-27T14:24:45;12.00;71.70
23120;DHT22;11729;50.836;4.330;2023-02-27T14:27:23;12.10;70.40
23120;DHT22;11729;50.836;4.330;2023-02-27T14:29:53;12.20;71.50
23120;DHT22;11729;50.836;4.330;2023-02-27T14:32:27;12.20;71.90
23120;DHT22;11729;50.836;4.330;2023-02-27T14:34:54;12.10;72.10
23120;DHT22;11729;50.836;4.330;2023-02-27T14:37:22;11.70;74.10
23120;DHT22;11729;50.836;4.330;2023-02-27T14:39:52;10.80;74.30
23120;DHT22;11729;50.836;4.330;2023-02-27T14:45:13;9.30;82.80
23120;DHT22;11729;50.836;4.330;2023-02-27T14:47:39;8.90;86.80
23120;DHT22;11729;50.836;4.330;2023-02-27T14:50:19;8.80;88.50
23120;DHT22;11729;50.836;4.330;2023-02-27T14:52:45;8.90;90.00
23120;DHT22;11729;50.836;4.330;2023-02-27T14:55:16;8.80;90.70
23120;DHT22;11729;50.836;4.330;2023-02-27T15:00:43;8.40;92.20
23120;DHT22;11729;50.836;4.330;2023-02-27T15:03:39;8.30;93.20
23120;DHT22;11729;50.836;4.330;2023-02-27T15:08:41;8.10;93.40
23120;DHT22;11729;50.836;4.330;2023-02-27T15:11:14;7.90;94.60
23120;DHT22;11729;50.836;4.330;2023-02-27T15:13:41;8.10;94.70
23120;DHT22;11729;50.836;4.330;2023-02-27T15:18:53;8.00;94.60
23120;DHT22;11729;50.836;4.330;2023-02-27T15:21:22;7.90;94.50
23120;DHT22;11729;50.836;4.330;2023-02-27T15:24:01;7.20;95.60
23120;DHT22;11729;50.836;4.330;2023-02-27T15:26:30;7.00;96.80
23120;DHT22;11729;50.836;4.330;2023-02-27T15:28:58;7.20;97.30
23120;DHT22;11729;50.836;4.330;2023-02-27T15:31:26;7.10;97.70
23120;DHT22;11729;50.836;4.330;2023-02-27T15:33:54;7.10;98.30
23120;DHT22;11729;50.836;4.330;2023-02-27T15:36:45;7.20;98.10
23120;DHT22;11729;50.836;4.330;2023-02-27T15:41:40;7.10;98.00
23120;DHT22;11729;50.836;4.330;2023-02-27T15:44:06;7.10;97.30
23120;DHT22;11729;50.836;4.330;2023-02-27T15:46:32;7.20;97.70
23120;DHT22;11729;50.836;4.330;2023-02-27T15:48:57;7.40;96.90
23120;DHT22;11729;50.836;4.330;2023-02-27T15:51:25;7.20;97.20
23120;DHT22;11729;50.836;4.330;2023-02-27T15:53:54;7.20;97.50
23120;DHT22;11729;50.836;4.330;2023-02-27T15:56:30;7.00;97.90
23120;DHT22;11729;50.836;4.330;2023-02-27T15:58:58;6.90;98.00
23120;DHT22;11729;50.836;4.330;2023-02-27T16:01:30;7.00;98.40
23120;DHT22;11729;50.836;4.330;2023-02-27T16:04:04;7.10;98.00
23120;DHT22;11729;50.836;4.330;2023-02-27T16:06:38;7.10;97.70
23120;DHT22;11729;50.836;4.330;2023-02-27T16:09:18;7.10;98.90
23120;DHT22;11729;50.836;4.330;2023-02-27T16:11:44;7.00;98.90
23120;DHT22;11729;50.836;4.330;2023-02-27T16:14:35;6.90;98.70
23120;DHT22;11729;50.836;4.330;2023-02-27T16:17:01;6.80;99.30
23120;DHT22;11729;50.836;4.330;2023-02-27T16:19:30;6.80;99.40
23120;DHT22;11729;50.836;4.330;2023-02-27T16:24:30;6.80;99.20
23120;DHT22;11729;50.836;4.330;2023-02-27T16:26:56;6.50;99.90
23120;DHT22;11729;50.836;4.330;2023-02-27T16:29:27;6.50;99.90
23120;DHT22;11729;50.836;4.330;2023-02-27T16:31:56;6.60;99.90
23120;DHT22;11729;50.836;4.330;2023-02-27T16:34:37;6.60;99.90
23120;DHT22;11729;50.836;4.330;2023-02-27T16:37:05;6.70;99.90
23120;DHT22;11729;50.836;4.330;2023-02-27T16:39:32;6.60;99.90
23120;DHT22;11729;50.836;4.330;2023-02-27T16:42:00;6.60;99.90
23120;DHT22;11729;50.836;4.330;2023-02-27T16:44:26;6.60;99.90
23120;DHT22;11729;50.836;4.330;2023-02-27T16:46:54;6.50;99.90
23120;DHT22;11729;50.836;4.330;2023-02-27T16:49:25;6.50;99.90
23120;DHT22;11729;50.836;4.330;2023-02-27T16:51:51;6.40;99.90
23120;DHT22;11729;50.836;4.330;2023-02-27T16:54:17;6.40;99.90
23120;DHT22;11729;50.836;4.330;2023-02-27T16:56:43;6.30;99.90
23120;DHT22;11729;50.836;4.330;2023-02-27T16:59:37;6.20;99.90
23120;DHT22;11729;50.836;4.330;2023-02-27T17:02:10;6.10;99.90
23120;DHT22;11729;50.836;4.330;2023-02-27T17:04:35;6.00;99.90
23120;DHT22;11729;50.836;4.330;2023-02-27T17:07:01;6.10;99.90
23120;DHT22;11729;50.836;4.330;2023-02-27T17:09:28;6.20;99.90
23120;DHT22;11729;50.836;4.330;2023-02-27T17:11:54;6.20;99.90
23120;DHT22;11729;50.836;4.330;2023-02-27T17:14:21;6.20;99.90
23120;DHT22;11729;50.836;4.330;2023-02-27T17:16:46;6.30;99.90
23120;DHT22;11729;50.836;4.330;2023-02-27T17:19:13;6.20;99.90
23120;DHT22;11729;50.836;4.330;2023-02-27T17:21:39;6.10;99.90
23120;DHT22;11729;50.836;4.330;2023-02-27T17:24:05;6.10;99.90
23120;DHT22;11729;50.836;4.330;2023-02-27T17:26:31;5.90;99.90
23120;DHT22;11729;50.836;4.330;2023-02-27T17:28:57;5.90;99.90
23120;DHT22;11729;50.836;4.330;2023-02-27T17:31:23;5.90;99.90
23120;DHT22;11729;50.836;4.330;2023-02-27T17:33:50;6.20;99.90
23120;DHT22;11729;50.836;4.330;2023-02-27T17:36:16;6.10;99.90
23120;DHT22;11729;50.836;4.330;2023-02-27T17:38:42;6.00;99.90
23120;DHT22;11729;50.836;4.330;2023-02-27T17:41:09;5.90;99.90
23120;DHT22;11729;50.836;4.330;2023-02-27T17:43:36;5.90;99.90
23120;DHT22;11729;50.836;4.330;2023-02-27T17:46:10;5.90;99.90
23120;DHT22;11729;50.836;4.330;2023-02-27T17:48:37;5.90;99.90
23120;DHT22;11729;50.836;4.330;2023-02-27T17:51:11;5.80;99.90
23120;DHT22;11729;50.836;4.330;2023-02-27T17:53:38;5.70;99.90
23120;DHT22;11729;50.836;4.330;2023-02-27T17:56:05;5.70;99.90
23120;DHT22;11729;50.836;4.330;2023-02-27T17:58:31;5.70;99.90
23120;DHT22;11729;50.836;4.330;2023-02-27T18:01:07;5.70;99.90
23120;DHT22;11729;50.836;4.330;2023-02-27T18:03:33;5.80;99.90
23120;DHT22;11729;50.836;4.330;2023-02-27T18:05:59;5.90;99.90
23120;DHT22;11729;50.836;4.330;2023-02-27T18:08:25;5.90;99.90
23120;DHT22;11729;50.836;4.330;2023-02-27T18:10:51;6.10;99.90
23120;DHT22;11729;50.836;4.330;2023-02-27T18:13:17;6.20;99.90
23120;DHT22;11729;50.836;4.330;2023-02-27T18:15:44;6.40;99.90
23120;DHT22;11729;50.836;4.330;2023-02-27T18:18:11;6.00;99.90
23120;DHT22;11729;50.836;4.330;2023-02-27T18:20:38;5.80;99.90
23120;DHT22;11729;50.836;4.330;2023-02-27T18:23:05;5.80;99.90
23120;DHT22;11729;50.836;4.330;2023-02-27T18:25:31;5.90;99.90
23120;DHT22;11729;50.836;4.330;2023-02-27T18:27:57;6.00;99.90
23120;DHT22;11729;50.836;4.330;2023-02-27T18:30:24;6.00;99.90
23120;DHT22;11729;50.836;4.330;2023-02-27T18:32:49;6.10;99.90
23120;DHT22;11729;50.836;4.330;2023-02-27T18:35:15;6.10;99.90
23120;DHT22;11729;50.836;4.330;2023-02-27T18:37:41;6.10;99.90
23120;DHT22;11729;50.836;4.330;2023-02-27T18:40:07;6.00;99.90